GMFO/OUD METAR and TAF weather

Enter ICAO airport designator
Station Type Date Time Source
GMFO METAR 2019/12/13 01:30 UTC NOAA

GMFO 130130Z 20013KT 9999 OVC026 09/05 Q1023 NOSIG


Station Type Date Time Source
GMFO Decoded METAR 2019/12/13 01:30 UTC NOAA

Oujda, Morocco (GMFO) 34-47N 001-56W 470M
Dec 12, 2019 - 08:30 PM EST / 2019.12.13 0130 UTC
Wind: from the SSW (200 degrees) at 15 MPH (13 KT):0
Visibility: greater than 7 mile(s):0
Sky conditions: overcast
Temperature: 48 F (9 C)
Dew Point: 41 F (5 C)
Relative Humidity: 75%
Pressure (altimeter): 30.21 in. Hg (1023 hPa)
ob: GMFO 130130Z 20013KT 9999 OVC026 09/05 Q1023 NOSIG
cycle: 1

Station Type Date Time Source
GMFO TAF 2019/12/12 18:18 UTC NOAA

TAF GMFO 121700Z 1218/1324 24006KT 9999 FEW026 SCT230
TEMPO 1312/1318 34016KT

Example: see airport list